Time;durP1;ratioP1;P1;durP2;ratioP2;P2;SDS_P1;SDS_P2;PMS_P1;PMS_P2;Temp;Humidity;BMP_temperature;BMP_pressure;BME280_temperature;BME280_humidity;BME280_pressure;Samples;Min_cycle;Max_cycle;Signal;HPM_P1;HPM_P2
2021/09/03 00:02:11;;;;;;;47.33;36.27;;;;;13.20;101775.00;;;;12874461;22;20208;-82
2021/09/03 00:07:12;;;;;;;45.43;35.97;;;;;13.20;101772.00;;;;12848420;22;20173;-83
2021/09/03 00:12:13;;;;;;;48.10;37.07;;;;;13.10;101769.00;;;;12873950;22;20268;-83
2021/09/03 00:17:15;;;;;;;43.70;37.10;;;;;13.10;101763.00;;;;12874422;22;20189;-81
2021/09/03 00:22:17;;;;;;;45.67;37.53;;;;;13.00;101762.00;;;;12898467;22;20487;-82
2021/09/03 00:27:18;;;;;;;46.13;37.43;;;;;13.00;101757.00;;;;12873053;22;20169;-83
2021/09/03 00:32:20;;;;;;;51.03;39.17;;;;;13.00;101756.00;;;;12873587;22;20725;-82
2021/09/03 00:37:21;;;;;;;53.50;38.97;;;;;12.90;101752.00;;;;12872859;22;20173;-82
2021/09/03 00:42:22;;;;;;;45.40;37.07;;;;;12.90;101749.00;;;;12898172;22;20248;-82
2021/09/03 00:47:24;;;;;;;47.90;37.10;;;;;12.80;101747.00;;;;12897413;22;20169;-82
2021/09/03 00:52:25;;;;;;;44.60;35.80;;;;;12.80;101736.00;;;;12873498;22;20254;-82
2021/09/03 00:57:26;;;;;;;45.93;37.00;;;;;12.70;101734.00;;;;12901047;22;20893;-83
2021/09/03 01:02:28;;;;;;;45.13;36.60;;;;;12.70;101737.00;;;;12845966;22;20197;-81
2021/09/03 01:07:29;;;;;;;43.70;35.67;;;;;12.60;101735.00;;;;12846310;22;20843;-81
2021/09/03 01:12:30;;;;;;;47.17;36.00;;;;;12.50;101722.00;;;;12869569;22;20180;-80
2021/09/03 01:17:31;;;;;;;47.40;35.47;;;;;12.40;101715.00;;;;12870785;22;20220;-80
2021/09/03 01:22:33;;;;;;;46.73;35.63;;;;;12.30;101710.00;;;;12846506;22;20197;-80
2021/09/03 01:27:34;;;;;;;47.67;36.83;;;;;12.30;101699.00;;;;12870585;22;20180;-81
2021/09/03 01:32:35;;;;;;;46.57;36.13;;;;;12.20;101700.00;;;;12868824;22;20184;-81
2021/09/03 01:37:37;;;;;;;48.70;36.57;;;;;12.10;101697.00;;;;12869606;22;20188;-81
2021/09/03 01:42:38;;;;;;;51.83;36.50;;;;;12.10;101694.00;;;;12895000;22;20645;-80
2021/09/03 01:47:39;;;;;;;50.67;37.47;;;;;12.10;101695.00;;;;12870940;22;20204;-80
2021/09/03 01:52:40;;;;;;;51.93;37.27;;;;;12.00;101688.00;;;;12870259;22;20173;-81
2021/09/03 01:57:41;;;;;;;47.97;34.40;;;;;12.00;101689.00;;;;12893961;22;20192;-81
2021/09/03 02:02:42;;;;;;;53.03;37.83;;;;;11.90;101686.00;;;;12867896;22;20228;-80
2021/09/03 02:07:44;;;;;;;43.87;33.90;;;;;11.90;101692.00;;;;12893960;22;20174;-81
2021/09/03 02:12:45;;;;;;;48.70;35.57;;;;;11.80;101682.00;;;;12868480;22;20248;-80
2021/09/03 02:17:46;;;;;;;51.87;35.60;;;;;11.80;101674.00;;;;12867752;22;20235;-80
2021/09/03 02:22:47;;;;;;;49.90;37.40;;;;;11.70;101685.00;;;;12870825;22;20197;-80
2021/09/03 02:27:48;;;;;;;55.53;38.13;;;;;11.70;101668.00;;;;12894973;22;20180;-80
2021/09/03 02:32:49;;;;;;;58.43;38.87;;;;;11.70;101663.00;;;;12845555;22;20170;-80
2021/09/03 02:37:51;;;;;;;55.00;38.00;;;;;11.70;101669.00;;;;12868598;22;20181;-81
2021/09/03 02:42:52;;;;;;;48.83;36.30;;;;;11.70;101669.00;;;;12869943;22;20201;-80
2021/09/03 02:47:53;;;;;;;46.60;36.13;;;;;11.70;101663.00;;;;12869679;22;20166;-80
2021/09/03 02:52:56;;;;;;;54.70;37.57;;;;;11.60;101664.00;;;;12844868;22;20613;-80
2021/09/03 02:57:57;;;;;;;49.77;36.17;;;;;11.60;101659.00;;;;12869809;22;20173;-80
2021/09/03 03:02:58;;;;;;;50.23;35.30;;;;;11.50;101658.00;;;;12868859;22;20255;-80
2021/09/03 03:08:00;;;;;;;53.43;37.67;;;;;11.50;101657.00;;;;12868833;22;20176;-80
2021/09/03 03:13:18;;;;;;;51.50;35.57;;;;;11.40;101647.00;;;;12842811;22;20169;-80
2021/09/03 03:18:20;;;;;;;47.90;35.27;;;;;11.40;101649.00;;;;12892701;22;20585;-80
2021/09/03 03:23:21;;;;;;;54.10;37.17;;;;;11.40;101633.00;;;;12843858;22;20197;-79
2021/09/03 03:28:22;;;;;;;50.60;35.10;;;;;11.40;101630.00;;;;12892609;22;20297;-79
2021/09/03 03:33:23;;;;;;;52.97;35.57;;;;;11.30;101644.00;;;;12868922;22;20200;-80
2021/09/03 03:38:24;;;;;;;48.30;34.53;;;;;11.20;101623.00;;;;12843803;22;20281;-80
2021/09/03 03:43:26;;;;;;;48.83;33.27;;;;;11.20;101621.00;;;;12891602;22;20243;-79
2021/09/03 03:48:27;;;;;;;41.30;30.97;;;;;11.10;101629.00;;;;12843271;22;20185;-80
2021/09/03 03:53:28;;;;;;;34.43;27.07;;;;;11.10;101626.00;;;;12868080;22;20169;-80
2021/09/03 03:58:29;;;;;;;37.10;28.17;;;;;11.00;101609.00;;;;12843082;22;20268;-79
2021/09/03 04:03:31;;;;;;;43.67;32.33;;;;;10.90;101613.00;;;;12842581;22;20705;-80
2021/09/03 04:08:32;;;;;;;48.73;34.17;;;;;10.90;101604.00;;;;12892284;22;20191;-79
2021/09/03 04:13:33;;;;;;;45.90;31.73;;;;;10.90;101609.00;;;;12890816;22;20184;-81
2021/09/03 04:18:34;;;;;;;48.43;33.17;;;;;10.90;101609.00;;;;12866268;22;20699;-80
2021/09/03 04:23:35;;;;;;;42.17;30.90;;;;;10.90;101612.00;;;;12867693;22;20613;-80
2021/09/03 04:28:37;;;;;;;44.07;31.30;;;;;10.90;101618.00;;;;12894143;22;20489;-80
2021/09/03 04:33:38;;;;;;;42.40;31.10;;;;;10.80;101615.00;;;;12844220;22;20177;-81
2021/09/03 04:38:39;;;;;;;43.30;33.10;;;;;10.80;101601.00;;;;12868662;22;20220;-80
2021/09/03 04:43:40;;;;;;;48.93;32.40;;;;;10.80;101598.00;;;;12868564;22;20201;-80
2021/09/03 04:48:41;;;;;;;40.43;28.87;;;;;10.80;101607.00;;;;12844764;22;20177;-81
2021/09/03 04:53:45;;;;;;;44.80;29.53;;;;;10.70;101606.00;;;;12846654;22;20182;-80
2021/09/03 04:58:46;;;;;;;41.60;31.33;;;;;10.70;101602.00;;;;12893858;22;20180;-80
2021/09/03 05:03:48;;;;;;;47.27;31.73;;;;;10.60;101604.00;;;;12868979;22;20212;-80
2021/09/03 05:08:49;;;;;;;46.30;31.23;;;;;10.60;101595.00;;;;12844244;22;20671;-80
2021/09/03 05:13:50;;;;;;;49.70;33.07;;;;;10.70;101597.00;;;;12871620;22;20561;-81
2021/09/03 05:18:54;;;;;;;51.87;33.77;;;;;10.80;101599.00;;;;12895579;22;20200;-81
2021/09/03 05:23:55;;;;;;;52.40;34.07;;;;;10.90;101607.00;;;;12847660;22;20201;-81
2021/09/03 05:28:56;;;;;;;50.17;33.90;;;;;10.90;101613.00;;;;12844723;22;20606;-80
2021/09/03 05:33:57;;;;;;;50.73;33.93;;;;;11.10;101633.00;;;;12847148;22;20177;-80
2021/09/03 05:38:59;;;;;;;47.70;34.43;;;;;11.30;101647.00;;;;12873591;22;20174;-80
2021/09/03 05:44:01;;;;;;;51.13;35.23;;;;;11.60;101673.00;;;;12923658;22;20227;-80
2021/09/03 05:49:03;;;;;;;57.50;36.13;;;;;11.90;101682.00;;;;12898564;22;20176;-80
2021/09/03 05:54:08;;;;;;;59.73;39.83;;;;;12.30;101687.00;;;;12897757;22;20211;-80
2021/09/03 05:59:09;;;;;;;93.13;76.97;;;;;12.60;101693.00;;;;12895711;22;20165;-80
2021/09/03 06:04:10;;;;;;;55.47;42.00;;;;;12.80;101687.00;;;;12897429;22;20198;-79
2021/09/03 06:09:11;;;;;;;57.60;41.03;;;;;13.10;101682.00;;;;12849584;22;20231;-80
2021/09/03 06:14:12;;;;;;;53.60;39.17;;;;;13.40;101680.00;;;;12849975;22;20177;-80
2021/09/03 06:19:13;;;;;;;54.40;39.80;;;;;13.70;101685.00;;;;12873764;22;20193;-80
2021/09/03 06:24:28;;;;;;;52.30;38.60;;;;;14.10;101704.00;;;;12894087;22;20197;-80
2021/09/03 06:34:42;;;;;;;43.93;34.47;;;;;15.10;101719.00;;;;12897058;22;20188;-80
2021/09/03 06:39:45;;;;;;;44.30;33.40;;;;;15.60;101700.00;;;;12895861;22;20177;-79
2021/09/03 06:44:46;;;;;;;39.73;33.73;;;;;16.00;101704.00;;;;12895646;22;20282;-81
2021/09/03 06:49:47;;;;;;;44.73;32.67;;;;;16.10;101715.00;;;;12897497;22;20185;-81
2021/09/03 06:54:49;;;;;;;48.00;33.83;;;;;16.40;101709.00;;;;12899037;22;20173;-80
2021/09/03 06:59:50;;;;;;;41.97;31.50;;;;;16.60;101712.00;;;;12860125;22;20193;-81
2021/09/03 07:04:55;;;;;;;39.28;33.08;;;;;17.00;101714.00;;;;12868322;22;20197;-81
2021/09/03 07:09:56;;;;;;;38.42;29.00;;;;;17.10;101712.00;;;;12847135;22;20174;-81
2021/09/03 07:14:58;;;;;;;42.33;31.45;;;;;17.40;101709.00;;;;12869665;22;20669;-81
2021/09/03 07:20:00;;;;;;;40.25;29.63;;;;;17.70;101703.00;;;;12845687;22;20287;-81
2021/09/03 07:25:03;;;;;;;35.85;29.73;;;;;17.90;101691.00;;;;12871679;22;20204;-81
2021/09/03 07:30:05;;;;;;;37.78;28.95;;;;;18.10;101696.00;;;;12868274;22;20181;-82
2021/09/03 07:35:07;;;;;;;38.05;29.83;;;;;18.30;101692.00;;;;12865723;22;20173;-81
2021/09/03 07:40:10;;;;;;;42.15;29.42;;;;;18.50;101684.00;;;;12870761;22;20784;-81
2021/09/03 07:45:12;;;;;;;36.65;29.52;;;;;18.70;101672.00;;;;12868555;22;20173;-81
2021/09/03 07:50:17;;;;;;;39.75;30.75;;;;;18.90;101677.00;;;;12912275;22;20165;-81
2021/09/03 07:55:18;;;;;;;38.15;31.33;;;;;19.20;101664.00;;;;12844614;22;20185;-81
2021/09/03 08:00:19;;;;;;;40.17;32.13;;;;;19.50;101666.00;;;;12842210;22;20430;-81
2021/09/03 08:05:21;;;;;;;42.03;31.08;;;;;19.80;101658.00;;;;12895680;22;20165;-81
2021/09/03 08:10:22;;;;;;;35.70;30.38;;;;;20.20;101658.00;;;;12868437;22;20235;-81
2021/09/03 08:15:23;;;;;;;37.25;29.67;;;;;20.50;101660.00;;;;12867253;22;20169;-81
2021/09/03 08:20:26;;;;;;;34.45;29.85;;;;;20.60;101652.00;;;;12844256;22;20173;-82
2021/09/03 08:25:27;;;;;;;38.17;29.17;;;;;20.90;101646.00;;;;12845385;22;20183;-81
2021/09/03 08:30:28;;;;;;;37.03;28.23;;;;;21.30;101637.00;;;;12871169;22;20173;-82
2021/09/03 08:35:29;;;;;;;30.80;26.00;;;;;21.70;101631.00;;;;12866157;22;20180;-80
2021/09/03 08:40:31;;;;;;;30.75;25.33;;;;;22.30;101628.00;;;;12871157;22;20636;-81
2021/09/03 08:45:32;;;;;;;27.83;22.23;;;;;22.80;101625.00;;;;12897588;22;20189;-82
2021/09/03 08:50:33;;;;;;;26.73;21.80;;;;;23.10;101626.00;;;;12897530;22;20226;-82
2021/09/03 08:55:35;;;;;;;25.20;22.15;;;;;23.50;101614.00;;;;12893694;22;20158;-83
2021/09/03 09:00:36;;;;;;;24.63;21.35;;;;;23.80;101617.00;;;;12846035;22;20261;-82
2021/09/03 09:05:47;;;;;;;28.30;21.90;;;;;24.10;101606.00;;;;12848147;22;20239;-83
2021/09/03 09:11:05;;;;;;;27.00;21.55;;;;;24.40;101605.00;;;;12874834;22;20181;-82
2021/09/03 09:16:12;;;;;;;25.63;19.40;;;;;24.80;101602.00;;;;12898033;22;20299;-82
2021/09/03 09:21:20;;;;;;;22.17;17.85;;;;;25.10;101592.00;;;;12852315;23;20225;-82
2021/09/03 09:26:44;;;;;;;25.73;20.05;;;;;25.60;101590.00;;;;12877966;22;20200;-82
2021/09/03 09:31:47;;;;;;;25.08;18.23;;;;;25.80;101591.00;;;;12876574;22;20181;-82
2021/09/03 09:36:53;;;;;;;21.65;17.48;;;;;26.20;101583.00;;;;12875324;22;20177;-82
2021/09/03 09:42:00;;;;;;;22.40;16.60;;;;;26.50;101589.00;;;;12873981;22;20204;-82
2021/09/03 09:47:07;;;;;;;17.50;15.55;;;;;26.70;101575.00;;;;12851621;22;20178;-82
2021/09/03 09:52:09;;;;;;;15.57;13.65;;;;;26.70;101568.00;;;;12874639;22;20240;-82
2021/09/03 09:57:10;;;;;;;22.30;13.73;;;;;27.10;101569.00;;;;12900741;22;20169;-83
2021/09/03 10:02:12;;;;;;;21.10;13.75;;;;;27.40;101566.00;;;;12898807;22;20739;-82
2021/09/03 10:07:13;;;;;;;17.27;14.15;;;;;27.40;101563.00;;;;12869703;22;20186;-83
2021/09/03 10:12:15;;;;;;;14.63;12.32;;;;;27.40;101548.00;;;;12846302;22;20188;-82
2021/09/03 10:17:20;;;;;;;18.45;14.05;;;;;27.30;101550.00;;;;12870481;22;20556;-82
2021/09/03 10:22:22;;;;;;;17.65;13.50;;;;;27.30;101543.00;;;;12871863;22;20205;-82
2021/09/03 10:27:23;;;;;;;15.77;12.27;;;;;27.70;101532.00;;;;12846435;22;20172;-83
2021/09/03 10:32:25;;;;;;;14.45;12.02;;;;;27.90;101528.00;;;;12867361;22;20173;-82
2021/09/03 10:37:31;;;;;;;14.60;11.85;;;;;28.20;101526.00;;;;12894397;22;20166;-82
2021/09/03 10:47:59;;;;;;;18.30;13.52;;;;;28.30;101509.00;;;;12895200;22;20174;-82
2021/09/03 10:53:06;;;;;;;16.38;12.43;;;;;28.50;101508.00;;;;12871681;22;20174;-83
2021/09/03 10:58:07;;;;;;;15.00;11.23;;;;;28.40;101493.00;;;;12869995;22;20200;-82
2021/09/03 11:03:49;;;;;;;13.98;11.38;;;;;28.70;101488.00;;;;12867128;22;20814;-83
2021/09/03 11:08:53;;;;;;;13.38;11.63;;;;;29.00;101482.00;;;;12884657;22;20174;-82
2021/09/03 11:13:58;;;;;;;16.00;11.50;;;;;28.80;101480.00;;;;12918656;22;20181;-82
2021/09/03 11:19:08;;;;;;;13.40;11.13;;;;;28.90;101481.00;;;;12868292;23;20197;-83
2021/09/03 11:24:12;;;;;;;13.35;11.32;;;;;28.90;101471.00;;;;12889323;22;20201;-81
2021/09/03 11:29:27;;;;;;;11.95;10.02;;;;;29.10;101469.00;;;;12889658;22;20170;-81
2021/09/03 11:34:46;;;;;;;14.45;10.32;;;;;29.20;101466.00;;;;12845805;22;20177;-81
2021/09/03 11:39:48;;;;;;;12.43;10.07;;;;;29.10;101465.00;;;;12867739;22;20337;-81
2021/09/03 11:44:56;;;;;;;14.75;10.63;;;;;29.20;101471.00;;;;12841213;22;20193;-81
2021/09/03 11:49:59;;;;;;;11.18;9.15;;;;;29.40;101459.00;;;;12891084;22;20177;-81
2021/09/03 11:55:04;;;;;;;11.50;9.52;;;;;29.30;101459.00;;;;12889464;22;20538;-81
2021/09/03 12:00:07;;;;;;;11.25;9.32;;;;;29.40;101459.00;;;;12864375;22;20182;-82
2021/09/03 12:05:12;;;;;;;10.73;8.45;;;;;29.60;101448.00;;;;12892155;22;20193;-82
2021/09/03 12:10:13;;;;;;;19.58;8.10;;;;;29.80;101450.00;;;;12890619;22;20196;-81
2021/09/03 12:15:18;;;;;;;8.32;7.32;;;;;30.00;101447.00;;;;12866717;22;20177;-82
2021/09/03 12:20:19;;;;;;;11.13;7.10;;;;;30.00;101444.00;;;;12891352;22;20649;-83
2021/09/03 12:25:34;;;;;;;9.20;7.80;;;;;29.70;101448.00;;;;12869856;22;20173;-82
2021/09/03 12:30:35;;;;;;;9.48;6.93;;;;;29.60;101439.00;;;;12867777;22;20170;-82
2021/09/03 12:35:36;;;;;;;8.50;7.35;;;;;29.90;101440.00;;;;12867810;22;20177;-83
2021/09/03 12:40:38;;;;;;;10.88;7.57;;;;;29.80;101441.00;;;;12867579;22;20268;-81
2021/09/03 12:45:47;;;;;;;8.50;7.07;;;;;29.70;101429.00;;;;12896356;22;20196;-82
2021/09/03 12:50:48;;;;;;;8.45;7.20;;;;;29.50;101428.00;;;;12873113;22;20193;-83
2021/09/03 12:55:50;;;;;;;8.35;7.55;;;;;29.60;101424.00;;;;12847108;22;20169;-82
2021/09/03 13:00:51;;;;;;;9.90;7.60;;;;;29.70;101418.00;;;;12869395;22;20822;-82
2021/09/03 13:05:53;;;;;;;7.70;6.90;;;;;30.00;101405.00;;;;12847062;22;20177;-82
2021/09/03 13:11:16;;;;;;;8.00;6.88;;;;;29.90;101407.00;;;;12873539;22;20640;-83
2021/09/03 13:16:17;;;;;;;9.10;6.55;;;;;29.90;101396.00;;;;12896089;22;20649;-82
2021/09/03 13:21:18;;;;;;;7.70;6.70;;;;;29.90;101398.00;;;;12894132;22;20268;-82
2021/09/03 13:26:19;;;;;;;9.68;6.95;;;;;30.00;101390.00;;;;12846342;22;20200;-82
2021/09/03 13:31:22;;;;;;;8.07;7.28;;;;;29.90;101384.00;;;;12872047;22;20170;-82
2021/09/03 13:36:24;;;;;;;9.45;7.22;;;;;29.80;101381.00;;;;12895943;22;20184;-82
2021/09/03 13:41:26;;;;;;;8.60;6.63;;;;;29.70;101377.00;;;;12872446;22;20600;-83
2021/09/03 13:46:27;;;;;;;7.95;6.95;;;;;29.80;101370.00;;;;12896788;22;20632;-82
2021/09/03 13:51:29;;;;;;;9.82;6.82;;;;;29.70;101363.00;;;;12898552;22;20637;-83
2021/09/03 13:56:33;;;;;;;8.57;6.75;;;;;29.90;101357.00;;;;12872335;22;20173;-83
2021/09/03 14:01:34;;;;;;;7.82;6.43;;;;;29.80;101352.00;;;;12876062;23;20220;-82
2021/09/03 14:06:37;;;;;;;9.27;5.70;;;;;29.80;101347.00;;;;12896197;22;20704;-83
2021/09/03 14:11:43;;;;;;;7.90;5.88;;;;;30.10;101341.00;;;;12902042;22;20178;-82
2021/09/03 14:16:45;;;;;;;9.77;6.28;;;;;30.70;101341.00;;;;12900518;22;20205;-82
2021/09/03 14:21:55;;;;;;;7.07;6.18;;;;;31.90;101331.00;;;;12902537;22;20220;-82
2021/09/03 14:26:57;;;;;;;8.60;6.25;;;;;33.40;101315.00;;;;12849691;22;20181;-82
2021/09/03 14:31:58;;;;;;;8.02;6.13;;;;;33.30;101321.00;;;;12869286;22;20331;-82
2021/09/03 14:37:04;;;;;;;13.75;6.70;;;;;32.70;101320.00;;;;12870989;23;20213;-82
2021/09/03 14:42:05;;;;;;;7.18;5.95;;;;;34.40;101311.00;;;;12922452;22;20196;-82
2021/09/03 14:47:07;;;;;;;6.78;6.05;;;;;34.50;101293.00;;;;12873715;22;20633;-82
2021/09/03 14:52:08;;;;;;;8.75;6.80;;;;;34.00;101301.00;;;;12848020;22;20399;-83
2021/09/03 14:57:09;;;;;;;6.85;6.00;;;;;32.40;101311.00;;;;12896869;22;20176;-82
2021/09/03 15:02:10;;;;;;;7.03;6.32;;;;;30.60;101297.00;;;;12870572;22;20220;-82
2021/09/03 15:07:12;;;;;;;7.13;6.53;;;;;31.20;101294.00;;;;12842285;22;20216;-82
2021/09/03 15:12:13;;;;;;;9.65;6.65;;;;;31.50;101299.00;;;;12865943;22;20605;-81
2021/09/03 15:17:15;;;;;;;8.30;6.47;;;;;29.10;101298.00;;;;12867066;22;20196;-82
2021/09/03 15:22:16;;;;;;;7.47;6.53;;;;;29.00;101289.00;;;;12895275;22;20350;-82
2021/09/03 15:27:18;;;;;;;9.85;7.10;;;;;27.60;101290.00;;;;12892683;22;20169;-82
2021/09/03 15:32:19;;;;;;;9.93;6.60;;;;;27.10;101289.00;;;;12870415;22;20200;-82
2021/09/03 15:37:20;;;;;;;9.02;6.82;;;;;26.70;101291.00;;;;12846403;22;20544;-82
2021/09/03 15:42:21;;;;;;;9.00;6.65;;;;;26.40;101289.00;;;;12868886;22;20196;-82
2021/09/03 15:47:23;;;;;;;11.73;7.05;;;;;26.20;101288.00;;;;12895992;22;20169;-82
2021/09/03 15:52:24;;;;;;;9.15;7.05;;;;;26.10;101284.00;;;;12867933;22;20188;-81
2021/09/03 15:57:27;;;;;;;9.25;7.03;;;;;25.90;101281.00;;;;12844867;22;20224;-81
2021/09/03 16:02:28;;;;;;;8.60;7.43;;;;;25.80;101280.00;;;;12869422;22;20204;-82
2021/09/03 16:07:30;;;;;;;8.75;7.70;;;;;25.70;101278.00;;;;12893091;22;20593;-81
2021/09/03 16:12:32;;;;;;;7.30;6.60;;;;;25.60;101271.00;;;;12869777;22;20601;-82
2021/09/03 16:17:35;;;;;;;9.38;6.78;;;;;25.50;101267.00;;;;12866938;22;20220;-81
2021/09/03 16:22:37;;;;;;;9.77;6.95;;;;;25.40;101272.00;;;;12868472;22;20197;-82
2021/09/03 16:27:38;;;;;;;8.13;6.97;;;;;25.20;101257.00;;;;12870478;23;20185;-82
2021/09/03 16:32:40;;;;;;;12.00;7.15;;;;;25.20;101265.00;;;;12869876;22;20177;-82
2021/09/03 16:37:43;;;;;;;11.25;7.25;;;;;25.10;101265.00;;;;12869284;22;20550;-81
2021/09/03 16:42:44;;;;;;;9.65;6.95;;;;;25.00;101261.00;;;;12869754;22;20295;-81
2021/09/03 16:47:46;;;;;;;11.93;7.15;;;;;24.90;101260.00;;;;12895458;22;20184;-81
2021/09/03 16:52:47;;;;;;;10.32;7.30;;;;;24.70;101253.00;;;;12871932;22;20192;-81
2021/09/03 16:57:49;;;;;;;9.85;7.03;;;;;24.60;101256.00;;;;12847057;22;20240;-82
2021/09/03 17:02:50;;;;;;;10.10;6.97;;;;;24.50;101257.00;;;;12871240;22;20285;-81
2021/09/03 17:07:51;;;;;;;7.75;6.72;;;;;24.40;101245.00;;;;12873061;22;20377;-81
2021/09/03 17:12:53;;;;;;;8.05;6.80;;;;;24.30;101240.00;;;;12873787;22;20178;-81
2021/09/03 17:17:55;;;;;;;12.10;7.75;;;;;24.10;101240.00;;;;12901390;22;20573;-81
2021/09/03 17:22:56;;;;;;;10.98;7.07;;;;;24.00;101241.00;;;;12899130;22;20201;-80
2021/09/03 17:27:57;;;;;;;12.05;8.05;;;;;23.90;101238.00;;;;12897846;22;20672;-80
2021/09/03 17:32:59;;;;;;;11.70;6.90;;;;;23.70;101238.00;;;;12900173;22;20613;-80
2021/09/03 17:38:01;;;;;;;10.57;6.82;;;;;23.50;101233.00;;;;12880079;22;20200;-81
2021/09/03 17:43:02;;;;;;;8.73;6.70;;;;;23.20;101246.00;;;;12851000;22;20308;-80
2021/09/03 17:48:04;;;;;;;7.78;6.60;;;;;23.00;101244.00;;;;12898833;22;20256;-81
2021/09/03 17:53:05;;;;;;;7.68;6.80;;;;;22.80;101242.00;;;;12875491;22;20260;-80
2021/09/03 17:58:06;;;;;;;11.20;7.78;;;;;22.50;101245.00;;;;12900239;22;20216;-81
2021/09/03 18:03:07;;;;;;;13.23;7.38;;;;;22.30;101234.00;;;;12848170;22;20194;-80
2021/09/03 18:08:09;;;;;;;10.40;7.07;;;;;22.00;101231.00;;;;12874612;22;20177;-80
2021/09/03 18:13:11;;;;;;;20.27;7.25;;;;;21.80;101233.00;;;;12873853;22;20217;-80
2021/09/03 18:18:13;;;;;;;14.00;7.65;;;;;21.50;101237.00;;;;12872995;22;20196;-81
2021/09/03 18:23:14;;;;;;;16.45;7.90;;;;;21.30;101238.00;;;;12897362;22;20629;-80
2021/09/03 18:28:15;;;;;;;12.95;7.78;;;;;21.10;101244.00;;;;12850879;22;20184;-81
2021/09/03 18:33:16;;;;;;;10.18;8.13;;;;;20.80;101256.00;;;;12900188;22;20268;-80
2021/09/03 18:38:20;;;;;;;10.98;8.50;;;;;20.60;101257.00;;;;12852164;22;20174;-80
2021/09/03 18:43:22;;;;;;;12.13;8.23;;;;;20.50;101260.00;;;;12924075;22;20196;-81
2021/09/03 18:48:26;;;;;;;12.43;8.32;;;;;20.30;101266.00;;;;12926005;22;20166;-81
2021/09/03 18:53:27;;;;;;;12.95;8.27;;;;;20.10;101269.00;;;;12849635;22;20173;-80
2021/09/03 18:58:29;;;;;;;13.57;8.27;;;;;20.00;101273.00;;;;12847282;22;20603;-80
2021/09/03 19:03:30;;;;;;;12.27;8.88;;;;;19.80;101275.00;;;;12867995;22;20275;-80
2021/09/03 19:08:32;;;;;;;10.50;8.77;;;;;19.70;101279.00;;;;12895431;22;20501;-81
2021/09/03 19:13:34;;;;;;;15.63;9.52;;;;;19.60;101288.00;;;;12895273;22;20494;-81
2021/09/03 19:18:37;;;;;;;14.60;9.48;;;;;19.50;101292.00;;;;12871732;22;20565;-81
2021/09/03 19:23:38;;;;;;;12.30;9.40;;;;;19.50;101298.00;;;;12874762;22;20194;-80
2021/09/03 19:28:39;;;;;;;13.18;10.38;;;;;19.40;101303.00;;;;12872287;22;20169;-81
2021/09/03 19:33:40;;;;;;;13.90;10.13;;;;;19.40;101303.00;;;;12871621;22;20173;-80
2021/09/03 19:38:42;;;;;;;15.68;10.63;;;;;19.30;101301.00;;;;12871055;22;20320;-80
2021/09/03 19:43:43;;;;;;;13.05;10.90;;;;;19.30;101309.00;;;;12895128;22;20216;-81
2021/09/03 19:48:44;;;;;;;13.93;11.20;;;;;19.30;101311.00;;;;12872695;22;20170;-80
2021/09/03 19:53:45;;;;;;;14.95;11.65;;;;;19.20;101317.00;;;;12920029;22;20773;-81
2021/09/03 19:58:51;;;;;;;14.15;11.63;;;;;19.10;101314.00;;;;12869939;22;20561;-80
2021/09/03 20:03:52;;;;;;;16.80;12.25;;;;;19.00;101317.00;;;;12890790;22;20220;-81
2021/09/03 20:08:54;;;;;;;16.67;11.90;;;;;19.00;101320.00;;;;12870651;22;20169;-80
2021/09/03 20:13:56;;;;;;;16.02;12.25;;;;;18.90;101321.00;;;;12845559;22;20173;-81
2021/09/03 20:18:58;;;;;;;16.25;13.32;;;;;18.80;101325.00;;;;12870889;22;20676;-80
2021/09/03 20:24:08;;;;;;;17.02;13.02;;;;;18.60;101319.00;;;;12870184;22;20196;-80
2021/09/03 20:29:09;;;;;;;19.08;13.88;;;;;18.50;101324.00;;;;12894671;22;20219;-80
2021/09/03 20:34:11;;;;;;;17.80;14.57;;;;;18.40;101317.00;;;;12895682;22;20529;-80
2021/09/03 20:39:13;;;;;;;23.85;14.20;;;;;18.30;101325.00;;;;12867988;22;20178;-81
2021/09/03 20:44:14;;;;;;;15.75;13.77;;;;;18.20;101328.00;;;;12844426;22;20604;-81
2021/09/03 20:49:15;;;;;;;22.50;15.38;;;;;18.10;101321.00;;;;12869096;22;20943;-81
2021/09/03 20:54:17;;;;;;;18.65;14.88;;;;;18.00;101322.00;;;;12893767;22;20204;-80
2021/09/03 20:59:18;;;;;;;21.58;15.30;;;;;18.00;101328.00;;;;12869335;22;20184;-80
2021/09/03 21:04:19;;;;;;;18.58;15.38;;;;;17.90;101334.00;;;;12867454;22;20220;-81
2021/09/03 21:09:23;;;;;;;16.63;14.75;;;;;17.80;101330.00;;;;12872778;22;20228;-80
2021/09/03 21:14:25;;;;;;;19.65;15.98;;;;;17.70;101333.00;;;;12872057;22;20193;-80
2021/09/03 21:19:26;;;;;;;20.50;15.38;;;;;17.60;101319.00;;;;12871551;22;20201;-80
2021/09/03 21:24:29;;;;;;;21.73;16.02;;;;;17.50;101320.00;;;;12896695;22;20193;-80
2021/09/03 21:29:30;;;;;;;18.85;15.38;;;;;17.40;101319.00;;;;12870924;22;20208;-81
2021/09/03 21:34:31;;;;;;;22.27;16.70;;;;;17.30;101320.00;;;;12868539;22;20752;-80
2021/09/03 21:39:32;;;;;;;19.70;16.05;;;;;17.30;101327.00;;;;12844064;22;20180;-80
2021/09/03 21:44:33;;;;;;;17.95;15.82;;;;;17.20;101321.00;;;;12892337;22;20256;-80
2021/09/03 21:49:35;;;;;;;22.20;16.17;;;;;17.00;101316.00;;;;12867298;22;20200;-80
2021/09/03 21:54:36;;;;;;;20.13;17.07;;;;;16.90;101324.00;;;;12919324;22;20948;-80
2021/09/03 21:59:38;;;;;;;26.17;19.37;;;;;16.90;101318.00;;;;12869668;22;20169;-81
2021/09/03 22:04:39;;;;;;;28.30;18.30;;;;;16.80;101328.00;;;;12893328;22;20196;-80
2021/09/03 22:09:40;;;;;;;22.53;17.77;;;;;16.80;101327.00;;;;12915829;22;20170;-80
2021/09/03 22:14:42;;;;;;;31.30;18.67;;;;;16.70;101314.00;;;;12871059;22;20212;-80
2021/09/03 22:19:43;;;;;;;23.35;18.65;;;;;16.60;101319.00;;;;12870642;22;20715;-80
2021/09/03 22:24:44;;;;;;;23.20;19.27;;;;;16.50;101316.00;;;;12847612;22;20201;-81
2021/09/03 22:29:46;;;;;;;26.70;19.67;;;;;16.40;101311.00;;;;12847378;22;20260;-80
2021/09/03 22:34:47;;;;;;;24.37;19.33;;;;;16.30;101313.00;;;;12846461;22;20545;-80
2021/09/03 22:39:48;;;;;;;29.30;21.60;;;;;16.30;101310.00;;;;12870683;22;20174;-81
2021/09/03 22:44:49;;;;;;;29.03;20.83;;;;;16.20;101303.00;;;;12872281;22;20259;-81
2021/09/03 22:49:51;;;;;;;30.63;22.37;;;;;16.20;101305.00;;;;12871121;22;20178;-80
2021/09/03 22:54:52;;;;;;;25.87;21.77;;;;;16.10;101312.00;;;;12896247;22;20216;-81
2021/09/03 22:59:53;;;;;;;29.30;22.20;;;;;16.10;101307.00;;;;12845419;22;20176;-81
2021/09/03 23:04:54;;;;;;;33.57;23.13;;;;;16.10;101305.00;;;;12847553;22;20197;-81
2021/09/03 23:09:55;;;;;;;31.87;23.33;;;;;16.00;101292.00;;;;12895657;22;20196;-80
2021/09/03 23:14:57;;;;;;;32.77;24.73;;;;;16.00;101290.00;;;;12871118;22;20185;-81
2021/09/03 23:19:58;;;;;;;36.87;24.87;;;;;16.00;101290.00;;;;12871371;22;20185;-80
2021/09/03 23:24:59;;;;;;;36.43;26.00;;;;;16.00;101280.00;;;;12871152;22;20231;-80
2021/09/03 23:30:02;;;;;;;36.30;25.60;;;;;15.90;101277.00;;;;12895550;22;20165;-80
2021/09/03 23:35:04;;;;;;;36.67;26.13;;;;;15.90;101273.00;;;;12846645;22;20265;-80
2021/09/03 23:40:07;;;;;;;34.60;27.03;;;;;15.90;101271.00;;;;12895402;22;20260;-81
2021/09/03 23:45:09;;;;;;;34.27;25.93;;;;;15.90;101260.00;;;;12869994;22;20625;-80
2021/09/03 23:50:12;;;;;;;39.10;26.73;;;;;15.80;101257.00;;;;12870288;22;20197;-80
2021/09/03 23:55:14;;;;;;;35.03;25.93;;;;;15.80;101256.00;;;;12895928;22;20173;-80
